createdAt,value
2022-07-28T00:00:08.414Z,0.00
2022-07-28T00:01:06.654Z,0.00
2022-07-28T00:02:06.704Z,0.00
2022-07-28T00:03:06.682Z,0.00
2022-07-28T00:04:06.626Z,0.00
2022-07-28T00:05:06.619Z,0.00
2022-07-28T00:06:06.615Z,0.00
2022-07-28T00:07:06.614Z,0.00
2022-07-28T00:08:06.599Z,0.00
2022-07-28T00:09:06.626Z,0.00
2022-07-28T00:10:06.582Z,0.00
2022-07-28T00:11:06.578Z,0.00
2022-07-28T00:12:06.573Z,0.00
2022-07-28T00:13:06.961Z,0.00
2022-07-28T00:14:06.556Z,0.00
2022-07-28T00:15:06.542Z,0.00
2022-07-28T00:16:06.608Z,0.00
2022-07-28T00:17:06.524Z,0.00
2022-07-28T00:18:06.526Z,0.00
2022-07-28T00:19:06.509Z,0.00
2022-07-28T00:20:06.503Z,0.00
2022-07-28T00:21:06.497Z,0.00
2022-07-28T00:22:06.482Z,0.00
2022-07-28T00:23:07.482Z,0.00
2022-07-28T00:24:06.489Z,0.00
2022-07-28T00:25:06.477Z,0.00
2022-07-28T00:26:06.458Z,0.00
2022-07-28T00:27:06.453Z,0.00
2022-07-28T00:28:07.214Z,0.00
2022-07-28T00:29:06.436Z,0.00
2022-07-28T00:30:06.429Z,0.00
2022-07-28T00:31:09.784Z,0.00
2022-07-28T00:33:06.856Z,0.00
2022-07-28T00:34:06.854Z,0.00
2022-07-28T00:35:08.257Z,0.00
2022-07-28T00:36:06.837Z,0.00
2022-07-28T00:37:06.900Z,0.00
2022-07-28T00:38:06.822Z,0.00
2022-07-28T00:39:06.819Z,0.00
2022-07-28T00:40:06.806Z,0.00
2022-07-28T00:41:07.883Z,0.00
2022-07-28T00:42:07.883Z,0.00
2022-07-28T00:43:07.874Z,0.00
2022-07-28T00:44:07.869Z,0.00
2022-07-28T00:45:07.855Z,0.00
2022-07-28T00:46:07.910Z,0.00
2022-07-28T00:47:07.847Z,0.00
2022-07-28T00:48:07.846Z,0.00
2022-07-28T00:49:07.850Z,0.00
2022-07-28T00:50:07.813Z,0.00
2022-07-28T00:51:07.820Z,0.00
2022-07-28T00:52:07.807Z,0.00
2022-07-28T00:53:07.837Z,0.00
2022-07-28T00:54:07.800Z,0.00
2022-07-28T00:55:07.776Z,0.00
2022-07-28T00:56:07.772Z,0.00
2022-07-28T00:57:07.766Z,0.00
2022-07-28T00:58:07.757Z,0.00
2022-07-28T00:59:07.739Z,0.00
2022-07-28T01:00:07.731Z,0.00
2022-07-28T01:01:07.740Z,0.00
2022-07-28T01:02:07.887Z,0.00
2022-07-28T01:03:07.797Z,0.00
2022-07-28T01:04:07.721Z,0.00
2022-07-28T01:05:07.706Z,0.00
2022-07-28T01:06:07.709Z,0.00
2022-07-28T01:07:07.698Z,0.00
2022-07-28T01:08:07.677Z,0.00
2022-07-28T01:09:07.673Z,0.00
2022-07-28T01:10:07.656Z,0.00
2022-07-28T01:11:07.662Z,0.00
2022-07-28T01:12:07.646Z,0.00
2022-07-28T01:13:07.653Z,0.00
2022-07-28T01:14:07.620Z,0.00
2022-07-28T01:15:08.630Z,0.00
2022-07-28T01:16:07.677Z,0.00
2022-07-28T01:17:07.617Z,0.00
2022-07-28T01:18:07.609Z,0.00
2022-07-28T01:19:08.231Z,0.00
2022-07-28T01:20:07.590Z,0.00
2022-07-28T01:21:07.575Z,0.00
2022-07-28T01:22:07.561Z,0.00
2022-07-28T01:23:07.549Z,0.00
2022-07-28T01:24:07.549Z,0.00
2022-07-28T01:25:07.555Z,0.00
2022-07-28T01:26:07.523Z,0.00
2022-07-28T01:27:07.510Z,0.00
2022-07-28T01:28:08.516Z,0.00
2022-07-28T01:29:07.501Z,0.00
2022-07-28T01:30:07.510Z,0.00
2022-07-28T01:31:07.568Z,0.00
2022-07-28T01:32:07.479Z,0.00
2022-07-28T01:33:07.469Z,0.00
2022-07-28T01:34:07.469Z,0.00
2022-07-28T01:35:07.476Z,0.00
2022-07-28T01:36:07.455Z,0.00
2022-07-28T01:37:07.434Z,0.00
2022-07-28T01:38:07.432Z,0.00
2022-07-28T01:39:07.435Z,0.00
2022-07-28T01:40:07.414Z,0.00
2022-07-28T01:41:07.413Z,0.00
2022-07-28T01:42:07.405Z,0.00
2022-07-28T01:43:07.394Z,0.00
2022-07-28T01:44:07.397Z,0.00
2022-07-28T01:45:07.393Z,0.00
2022-07-28T01:46:07.419Z,0.00
2022-07-28T01:47:07.384Z,0.00
2022-07-28T01:48:07.357Z,0.00
2022-07-28T01:49:07.380Z,0.00
2022-07-28T01:50:07.341Z,0.00
2022-07-28T01:51:07.348Z,0.00
2022-07-28T01:52:07.320Z,0.00
2022-07-28T01:53:07.311Z,0.00
2022-07-28T01:54:07.318Z,0.00
2022-07-28T01:55:07.294Z,0.00
2022-07-28T01:56:07.289Z,0.00
2022-07-28T01:57:07.277Z,0.00
2022-07-28T01:58:07.283Z,0.00
2022-07-28T01:59:07.271Z,0.00
2022-07-28T02:00:07.257Z,0.00
2022-07-28T02:01:07.337Z,0.00
2022-07-28T02:02:07.269Z,0.00
2022-07-28T02:03:07.235Z,0.00
2022-07-28T02:04:07.235Z,0.00
2022-07-28T02:05:07.307Z,0.00
2022-07-28T02:06:07.813Z,0.00
2022-07-28T02:07:07.198Z,0.00
2022-07-28T02:08:07.191Z,0.00
2022-07-28T02:09:07.185Z,0.00
2022-07-28T02:10:07.179Z,0.00
2022-07-28T02:11:09.785Z,0.00
2022-07-28T02:12:07.165Z,0.00
2022-07-28T02:13:07.147Z,0.00
2022-07-28T02:14:07.146Z,0.00
2022-07-28T02:15:07.136Z,0.00
2022-07-28T02:16:07.208Z,0.00
2022-07-28T02:17:07.125Z,0.00
2022-07-28T02:18:07.114Z,0.00
2022-07-28T02:19:07.107Z,0.00
2022-07-28T02:20:07.094Z,0.00
2022-07-28T02:21:07.086Z,0.00
2022-07-28T02:22:07.075Z,0.00
2022-07-28T02:23:07.077Z,0.00
2022-07-28T02:24:07.063Z,0.00
2022-07-28T02:25:07.054Z,0.00
2022-07-28T02:26:07.056Z,0.00
2022-07-28T02:27:07.050Z,0.00
2022-07-28T02:28:07.025Z,0.00
2022-07-28T02:29:07.025Z,0.00
2022-07-28T02:30:07.022Z,0.00
2022-07-28T02:31:07.044Z,0.00
2022-07-28T02:32:27.263Z,0.00
2022-07-28T02:33:07.981Z,0.00
2022-07-28T02:34:07.164Z,0.00
2022-07-28T02:35:06.987Z,0.00
2022-07-28T02:36:06.963Z,0.00
2022-07-28T02:37:07.821Z,0.00
2022-07-28T02:38:06.947Z,0.00
2022-07-28T02:39:06.941Z,0.00
2022-07-28T02:40:06.941Z,0.00
2022-07-28T02:41:06.931Z,0.00
2022-07-28T02:42:06.929Z,0.00
2022-07-28T02:43:06.929Z,0.00
2022-07-28T02:44:06.900Z,0.00
2022-07-28T02:45:06.894Z,0.00
2022-07-28T02:46:06.925Z,0.00
2022-07-28T02:47:06.878Z,0.00
2022-07-28T02:48:06.873Z,0.00
2022-07-28T02:49:07.007Z,0.00
2022-07-28T02:50:07.849Z,0.00
2022-07-28T02:51:06.844Z,0.00
2022-07-28T02:52:06.836Z,0.00
2022-07-28T02:53:14.904Z,0.00
2022-07-28T02:54:07.817Z,0.00
2022-07-28T02:55:06.817Z,0.00
2022-07-28T02:56:06.808Z,0.00
2022-07-28T02:57:06.791Z,0.00
2022-07-28T02:58:06.790Z,0.00
2022-07-28T02:59:06.772Z,0.00
2022-07-28T03:00:06.773Z,0.00
2022-07-28T03:01:06.821Z,4.00
2022-07-28T03:02:06.762Z,4.00
2022-07-28T03:03:06.745Z,4.00
2022-07-28T03:04:06.736Z,0.00
2022-07-28T03:05:07.464Z,0.00
2022-07-28T03:06:06.725Z,0.00
2022-07-28T03:07:06.723Z,4.00
2022-07-28T03:08:06.699Z,0.00
2022-07-28T03:09:06.886Z,4.00
2022-07-28T03:10:06.684Z,0.00
2022-07-28T03:11:06.674Z,4.00
2022-07-28T03:12:06.683Z,4.00
2022-07-28T03:13:06.660Z,4.00
2022-07-28T03:14:06.666Z,4.00
2022-07-28T03:15:06.648Z,4.00
2022-07-28T03:16:06.634Z,4.00
2022-07-28T03:17:06.709Z,8.00
2022-07-28T03:18:06.620Z,8.00
2022-07-28T03:19:06.617Z,8.00
2022-07-28T03:20:06.606Z,8.00
2022-07-28T03:21:06.602Z,12.00
2022-07-28T03:22:06.586Z,12.00
2022-07-28T03:23:06.574Z,16.00
2022-07-28T03:24:06.574Z,16.00
2022-07-28T03:25:06.569Z,16.00
2022-07-28T03:26:06.554Z,20.00
2022-07-28T03:27:06.549Z,24.00
2022-07-28T03:28:06.546Z,24.00
2022-07-28T03:29:06.528Z,24.00
2022-07-28T03:30:06.544Z,28.00
2022-07-28T03:31:06.607Z,32.00
2022-07-28T03:32:06.513Z,32.00
2022-07-28T03:33:06.494Z,40.00
2022-07-28T03:34:06.487Z,44.00
2022-07-28T03:35:06.494Z,48.00
2022-07-28T03:36:06.471Z,52.00
2022-07-28T03:37:06.461Z,60.00
2022-07-28T03:38:06.451Z,64.00
2022-07-28T03:39:06.445Z,72.00
2022-07-28T03:40:06.448Z,76.00
2022-07-28T03:41:06.438Z,84.00
2022-07-28T03:42:06.423Z,92.00
2022-07-28T03:43:06.413Z,100.00
2022-07-28T03:44:06.402Z,112.00
2022-07-28T03:45:06.417Z,120.00
2022-07-28T03:46:09.853Z,132.00
2022-07-28T03:47:08.372Z,140.00
2022-07-28T03:48:06.366Z,156.00
2022-07-28T03:49:06.443Z,172.00
2022-07-28T03:50:06.395Z,188.00
2022-07-28T03:51:06.348Z,200.00
2022-07-28T03:52:06.345Z,216.00
2022-07-28T03:53:06.326Z,232.00
2022-07-28T03:54:06.336Z,252.00
2022-07-28T03:55:06.308Z,264.00
2022-07-28T03:56:06.311Z,276.00
2022-07-28T03:57:06.295Z,284.00
2022-07-28T03:58:06.298Z,292.00
2022-07-28T03:59:06.295Z,292.00
2022-07-28T04:00:09.685Z,276.00
2022-07-28T04:01:07.304Z,260.00
2022-07-28T04:02:06.297Z,260.00
2022-07-28T04:03:35.271Z,264.00
2022-07-28T04:04:08.230Z,272.00
2022-07-28T04:05:06.231Z,288.00
2022-07-28T04:06:06.242Z,288.00
2022-07-28T04:07:06.210Z,300.00
2022-07-28T04:08:06.200Z,312.00
2022-07-28T04:09:06.189Z,328.00
2022-07-28T04:10:06.193Z,344.00
2022-07-28T04:11:06.182Z,372.00
2022-07-28T04:12:06.168Z,392.00
2022-07-28T04:13:06.161Z,400.00
2022-07-28T04:14:06.157Z,404.00
2022-07-28T04:15:06.143Z,428.00
2022-07-28T04:16:06.148Z,456.00
2022-07-28T04:17:06.178Z,500.00
2022-07-28T04:18:06.119Z,496.00
2022-07-28T04:19:06.762Z,468.00
2022-07-28T04:20:06.108Z,480.00
2022-07-28T04:21:06.102Z,496.00
2022-07-28T04:22:06.119Z,516.00
2022-07-28T04:23:06.076Z,536.00
2022-07-28T04:24:06.071Z,552.00
2022-07-28T04:25:06.058Z,580.00
2022-07-28T04:26:06.057Z,604.00
2022-07-28T04:27:06.059Z,636.00
2022-07-28T04:28:06.046Z,680.00
2022-07-28T04:29:06.048Z,760.00
2022-07-28T04:30:06.036Z,928.00
2022-07-28T04:31:06.048Z,1540.00
2022-07-28T04:32:06.029Z,3208.00
2022-07-28T04:33:06.011Z,5016.00
2022-07-28T04:34:06.000Z,4352.00
2022-07-28T04:35:05.996Z,1804.00
2022-07-28T04:36:05.985Z,1116.00
2022-07-28T04:37:05.969Z,880.00
2022-07-28T04:38:05.996Z,844.00
2022-07-28T04:39:06.953Z,916.00
2022-07-28T04:40:05.942Z,1116.00
2022-07-28T04:41:05.931Z,1340.00
2022-07-28T04:42:05.943Z,1576.00
2022-07-28T04:43:05.927Z,1800.00
2022-07-28T04:44:05.907Z,2344.00
2022-07-28T04:45:05.907Z,2992.00
2022-07-28T04:46:05.963Z,4816.00
2022-07-28T04:47:06.505Z,9612.00
2022-07-28T04:48:06.899Z,14400.00
2022-07-28T04:49:05.912Z,12576.00
2022-07-28T04:50:05.879Z,11892.00
2022-07-28T04:51:05.861Z,13248.00
2022-07-28T04:52:05.857Z,15680.00
2022-07-28T04:53:05.841Z,11944.00
2022-07-28T04:54:05.852Z,9724.00
2022-07-28T04:55:05.859Z,8468.00
2022-07-28T04:56:05.813Z,7648.00
2022-07-28T04:57:07.584Z,7600.00
2022-07-28T04:58:05.800Z,7260.00
2022-07-28T04:59:05.801Z,7112.00
2022-07-28T05:00:05.788Z,7056.00
2022-07-28T05:01:06.458Z,5940.00
2022-07-28T05:02:05.765Z,5616.00
2022-07-28T05:03:05.757Z,6104.00
2022-07-28T05:04:05.848Z,5836.00
2022-07-28T05:05:05.824Z,6536.00
2022-07-28T05:06:05.735Z,6460.00
2022-07-28T05:07:07.821Z,6448.00
2022-07-28T05:08:06.734Z,6368.00
2022-07-28T05:09:05.716Z,6388.00
2022-07-28T05:10:05.720Z,6348.00
2022-07-28T05:11:05.713Z,6332.00
2022-07-28T05:12:05.705Z,6396.00
2022-07-28T05:13:05.721Z,6500.00
2022-07-28T05:14:05.679Z,6564.00
2022-07-28T05:15:05.674Z,4688.00
2022-07-28T05:16:05.699Z,4032.00
2022-07-28T05:17:05.654Z,3104.00
2022-07-28T05:18:05.653Z,2500.00
2022-07-28T05:19:05.634Z,2356.00
2022-07-28T05:20:05.635Z,3912.00
2022-07-28T05:21:05.627Z,4000.00
2022-07-28T05:22:05.614Z,4008.00
2022-07-28T05:23:05.606Z,3488.00
2022-07-28T05:24:05.597Z,5372.00
2022-07-28T05:25:05.660Z,7396.00
2022-07-28T05:26:05.590Z,7480.00
2022-07-28T05:27:05.569Z,7632.00
2022-07-28T05:28:05.565Z,7464.00
2022-07-28T05:29:05.572Z,7856.00
2022-07-28T05:30:05.549Z,8008.00
2022-07-28T05:31:05.555Z,8276.00
2022-07-28T05:32:16.100Z,8468.00
2022-07-28T05:33:07.530Z,8396.00
2022-07-28T05:34:05.519Z,8188.00
2022-07-28T05:35:05.509Z,8072.00
2022-07-28T05:36:05.550Z,8112.00
2022-07-28T05:37:05.502Z,7844.00
2022-07-28T05:38:10.460Z,7704.00
2022-07-28T05:39:07.474Z,7496.00
2022-07-28T05:40:05.488Z,7348.00
2022-07-28T05:41:05.464Z,7228.00
2022-07-28T05:42:05.462Z,6968.00
2022-07-28T05:43:05.444Z,6812.00
2022-07-28T05:44:05.438Z,6680.00
2022-07-28T05:45:05.429Z,6480.00
2022-07-28T05:46:06.487Z,6316.00
2022-07-28T05:47:05.429Z,6168.00
2022-07-28T05:48:05.406Z,5972.00
2022-07-28T05:49:05.499Z,5988.00
2022-07-28T05:50:05.391Z,5668.00
2022-07-28T05:51:05.393Z,5524.00
2022-07-28T05:52:05.398Z,5412.00
2022-07-28T05:53:05.398Z,5264.00
2022-07-28T05:54:05.363Z,5184.00
2022-07-28T05:55:05.365Z,5140.00
2022-07-28T05:56:05.342Z,5112.00
2022-07-28T05:57:05.330Z,5100.00
2022-07-28T05:58:05.338Z,5120.00
2022-07-28T05:59:05.321Z,5144.00
2022-07-28T06:00:05.329Z,5220.00
2022-07-28T06:01:05.351Z,5284.00
2022-07-28T06:02:05.367Z,5292.00
2022-07-28T06:03:05.290Z,5204.00
2022-07-28T06:04:26.500Z,5152.00
2022-07-28T06:05:07.263Z,5148.00
2022-07-28T06:06:15.581Z,5072.00
2022-07-28T06:07:06.251Z,5048.00
2022-07-28T06:08:05.247Z,5004.00
2022-07-28T06:09:05.231Z,4908.00
2022-07-28T06:10:05.225Z,4944.00
2022-07-28T06:11:05.220Z,4824.00
2022-07-28T06:12:05.206Z,4624.00
2022-07-28T06:13:05.204Z,4756.00
2022-07-28T06:14:05.185Z,4652.00
2022-07-28T06:15:06.181Z,4448.00
2022-07-28T06:16:07.398Z,4532.00
2022-07-28T06:17:06.240Z,4544.00
2022-07-28T06:18:05.171Z,4620.00
2022-07-28T06:19:05.154Z,4612.00
2022-07-28T06:20:05.141Z,4632.00
2022-07-28T06:21:05.169Z,4608.00
2022-07-28T06:22:05.138Z,4804.00
2022-07-28T06:23:05.123Z,4556.00
2022-07-28T06:24:05.124Z,4508.00
2022-07-28T06:25:05.111Z,4500.00
2022-07-28T06:26:05.102Z,4396.00
2022-07-28T06:27:05.088Z,4432.00
2022-07-28T06:28:05.108Z,4372.00
2022-07-28T06:29:05.089Z,4452.00
2022-07-28T06:30:05.073Z,4400.00
2022-07-28T06:31:05.131Z,4448.00
2022-07-28T06:32:05.149Z,4480.00
2022-07-28T06:33:05.037Z,4464.00
2022-07-28T06:34:05.029Z,4692.00
2022-07-28T06:35:05.026Z,4608.00
2022-07-28T06:36:05.013Z,4616.00
2022-07-28T06:37:05.010Z,4644.00
2022-07-28T06:38:05.013Z,4700.00
2022-07-28T06:39:04.988Z,4740.00
2022-07-28T06:40:04.984Z,4752.00
2022-07-28T06:41:04.978Z,4880.00
2022-07-28T06:42:04.968Z,4944.00
2022-07-28T06:43:04.964Z,5004.00
2022-07-28T06:44:04.953Z,5096.00
2022-07-28T06:45:04.942Z,5092.00
2022-07-28T06:46:04.932Z,5332.00
2022-07-28T06:47:05.020Z,5420.00
2022-07-28T06:48:04.925Z,4568.00
2022-07-28T06:49:04.963Z,3388.00
2022-07-28T06:50:06.813Z,2984.00
2022-07-28T06:51:05.906Z,3384.00
2022-07-28T06:52:04.890Z,3628.00
2022-07-28T06:53:05.227Z,3256.00
2022-07-28T06:54:10.804Z,3540.00
2022-07-28T06:55:06.873Z,2716.00
2022-07-28T06:56:04.862Z,2520.00
2022-07-28T06:57:04.975Z,2784.00
2022-07-28T06:58:04.848Z,3144.00
2022-07-28T06:59:04.829Z,2824.00
2022-07-28T07:00:04.841Z,3096.00
2022-07-28T07:01:04.894Z,3284.00
2022-07-28T07:02:04.798Z,2620.00
2022-07-28T07:03:05.340Z,4028.00
2022-07-28T07:04:04.843Z,3956.00
2022-07-28T07:05:04.814Z,3940.00
2022-07-28T07:06:04.773Z,3500.00
2022-07-28T07:07:04.768Z,3512.00
2022-07-28T07:08:05.756Z,3688.00
2022-07-28T07:09:04.755Z,3720.00
2022-07-28T07:10:04.743Z,3496.00
2022-07-28T07:11:04.741Z,3196.00
2022-07-28T07:12:04.724Z,3596.00
2022-07-28T07:13:04.726Z,3552.00
2022-07-28T07:14:04.708Z,3484.00
2022-07-28T07:15:04.700Z,3480.00
2022-07-28T07:16:04.728Z,3468.00
2022-07-28T07:17:04.697Z,3404.00
2022-07-28T07:18:04.686Z,3404.00
2022-07-28T07:19:05.793Z,3344.00
2022-07-28T07:20:04.658Z,3296.00
2022-07-28T07:21:04.662Z,3344.00
2022-07-28T07:22:04.655Z,3280.00
2022-07-28T07:23:04.649Z,3276.00
2022-07-28T07:24:04.633Z,3276.00
2022-07-28T07:25:04.624Z,3244.00
2022-07-28T07:26:04.622Z,3212.00
2022-07-28T07:27:04.615Z,3188.00
2022-07-28T07:28:04.599Z,3172.00
2022-07-28T07:29:04.605Z,3104.00
2022-07-28T07:30:04.592Z,3096.00
2022-07-28T07:31:04.604Z,3080.00
2022-07-28T07:32:10.096Z,3052.00
2022-07-28T07:33:07.905Z,3036.00
2022-07-28T07:34:04.561Z,3028.00
2022-07-28T07:35:04.552Z,3004.00
2022-07-28T07:36:04.541Z,2968.00
2022-07-28T07:37:04.527Z,2932.00
2022-07-28T07:38:05.399Z,2936.00
2022-07-28T07:39:04.525Z,2940.00
2022-07-28T07:40:04.518Z,2932.00
2022-07-28T07:41:04.523Z,2892.00
2022-07-28T07:42:04.496Z,2900.00
2022-07-28T07:43:04.484Z,2876.00
2022-07-28T07:44:04.516Z,2868.00
2022-07-28T07:45:04.476Z,2828.00
2022-07-28T07:46:04.500Z,2836.00
2022-07-28T07:47:04.570Z,2812.00
2022-07-28T07:48:04.454Z,2800.00
2022-07-28T07:49:04.486Z,2768.00
2022-07-28T07:50:04.789Z,2772.00
2022-07-28T07:51:04.427Z,2760.00
2022-07-28T07:52:04.406Z,2712.00
2022-07-28T07:53:05.417Z,2716.00
2022-07-28T07:54:04.396Z,2708.00
2022-07-28T07:55:04.393Z,2708.00
2022-07-28T07:56:04.385Z,2680.00
2022-07-28T07:57:04.377Z,2672.00
2022-07-28T07:58:04.369Z,2660.00
2022-07-28T07:59:04.379Z,2652.00
2022-07-28T08:00:04.362Z,2648.00
2022-07-28T08:01:04.348Z,2644.00
2022-07-28T08:02:04.429Z,2648.00
2022-07-28T08:03:04.329Z,2656.00
2022-07-28T08:04:05.363Z,2612.00
2022-07-28T08:05:04.387Z,2648.00
2022-07-28T08:06:04.322Z,2624.00
2022-07-28T08:07:04.297Z,2616.00
2022-07-28T08:08:04.291Z,2624.00
2022-07-28T08:09:04.286Z,2608.00
2022-07-28T08:10:04.274Z,2604.00
2022-07-28T08:11:04.278Z,2516.00
2022-07-28T08:12:04.269Z,2548.00
2022-07-28T08:13:04.247Z,2568.00
2022-07-28T08:14:04.264Z,2572.00
2022-07-28T08:15:04.246Z,2564.00
2022-07-28T08:16:04.297Z,2544.00
2022-07-28T08:17:04.228Z,2548.00
2022-07-28T08:18:04.212Z,2544.00
2022-07-28T08:19:04.208Z,2536.00
2022-07-28T08:20:04.192Z,2508.00
2022-07-28T08:21:04.182Z,2504.00
2022-07-28T08:22:04.204Z,2516.00
2022-07-28T08:23:04.182Z,2508.00
2022-07-28T08:24:04.164Z,2488.00
2022-07-28T08:25:04.186Z,2500.00
2022-07-28T08:26:04.148Z,2488.00
2022-07-28T08:27:04.146Z,2488.00
2022-07-28T08:28:04.138Z,2480.00
2022-07-28T08:29:04.126Z,2480.00
2022-07-28T08:30:04.122Z,2464.00
2022-07-28T08:31:04.186Z,2464.00
2022-07-28T08:32:04.121Z,2468.00
2022-07-28T08:33:04.104Z,2472.00
2022-07-28T08:34:04.080Z,2452.00
2022-07-28T08:35:31.602Z,2444.00
2022-07-28T08:36:06.064Z,2400.00
2022-07-28T08:37:04.073Z,2424.00
2022-07-28T08:38:04.052Z,2416.00
2022-07-28T08:39:04.039Z,2416.00
2022-07-28T08:40:04.030Z,2420.00
2022-07-28T08:41:04.026Z,2420.00
2022-07-28T08:42:04.019Z,2436.00
2022-07-28T08:43:04.015Z,2388.00
2022-07-28T08:44:04.006Z,2408.00
2022-07-28T08:45:04.005Z,2400.00
2022-07-28T08:46:04.017Z,2396.00
2022-07-28T08:47:05.019Z,2396.00
2022-07-28T08:48:08.702Z,2400.00
2022-07-28T08:49:05.998Z,2388.00
2022-07-28T08:50:04.849Z,2392.00
2022-07-28T08:51:03.947Z,2364.00
2022-07-28T08:52:03.943Z,2368.00
2022-07-28T08:53:03.946Z,2364.00
2022-07-28T08:54:03.932Z,2356.00
2022-07-28T08:55:03.921Z,2336.00
2022-07-28T08:56:03.911Z,2324.00
2022-07-28T08:57:03.923Z,2336.00
2022-07-28T08:58:03.895Z,2324.00
2022-07-28T08:59:03.882Z,2316.00
2022-07-28T09:00:03.872Z,2316.00
2022-07-28T09:01:03.875Z,2324.00
2022-07-28T09:02:03.908Z,2280.00
2022-07-28T09:03:03.945Z,2268.00
2022-07-28T09:04:03.858Z,2296.00
2022-07-28T09:05:03.837Z,2300.00
2022-07-28T09:06:03.839Z,2288.00
2022-07-28T09:07:03.843Z,2284.00
2022-07-28T09:08:03.830Z,2264.00
2022-07-28T09:09:03.806Z,2240.00
2022-07-28T09:10:03.795Z,2240.00
2022-07-28T09:11:03.796Z,2204.00
2022-07-28T09:12:03.795Z,2224.00
2022-07-28T09:13:03.789Z,2244.00
2022-07-28T09:14:03.770Z,2208.00
2022-07-28T09:15:03.771Z,2176.00
2022-07-28T09:16:03.842Z,2216.00
2022-07-28T09:17:05.452Z,2192.00
2022-07-28T09:18:03.744Z,2212.00
2022-07-28T09:19:03.726Z,2188.00
2022-07-28T09:20:08.859Z,2208.00
2022-07-28T09:21:05.729Z,2244.00
2022-07-28T09:22:03.707Z,2216.00
2022-07-28T09:23:03.708Z,2140.00
2022-07-28T09:24:03.696Z,2132.00
2022-07-28T09:25:03.685Z,2084.00
2022-07-28T09:26:09.958Z,2052.00
2022-07-28T09:27:05.665Z,2012.00
2022-07-28T09:28:03.670Z,1968.00
2022-07-28T09:29:03.656Z,1956.00
2022-07-28T09:30:03.642Z,1952.00
2022-07-28T09:31:03.689Z,1956.00
2022-07-28T09:32:03.661Z,1952.00
2022-07-28T09:33:03.623Z,1952.00
2022-07-28T09:34:03.629Z,1920.00
2022-07-28T09:35:03.634Z,1924.00
2022-07-28T09:36:03.617Z,1940.00
2022-07-28T09:37:03.591Z,1956.00
2022-07-28T09:38:03.606Z,1964.00
2022-07-28T09:39:03.571Z,1912.00
2022-07-28T09:40:04.119Z,1868.00
2022-07-28T09:41:04.566Z,1936.00
2022-07-28T09:42:04.419Z,1940.00
2022-07-28T09:43:03.553Z,1932.00
2022-07-28T09:44:03.543Z,1928.00
2022-07-28T09:45:21.743Z,1896.00
2022-07-28T09:46:05.663Z,1864.00
2022-07-28T09:47:04.533Z,1948.00
2022-07-28T09:48:03.738Z,1912.00
2022-07-28T09:49:03.696Z,1904.00
2022-07-28T09:50:03.568Z,1892.00
2022-07-28T09:51:03.481Z,1908.00
2022-07-28T09:52:03.497Z,1900.00
2022-07-28T09:53:03.461Z,1936.00
2022-07-28T09:54:03.451Z,1936.00
2022-07-28T09:55:03.454Z,1964.00
2022-07-28T09:56:03.433Z,1968.00
2022-07-28T09:57:04.432Z,1960.00
2022-07-28T09:58:04.383Z,1948.00
2022-07-28T09:59:03.424Z,1968.00
2022-07-28T10:00:03.407Z,1960.00
2022-07-28T10:01:03.405Z,1964.00
2022-07-28T10:02:03.437Z,1948.00
2022-07-28T10:03:03.478Z,2508.00
2022-07-28T10:04:03.375Z,1964.00
2022-07-28T10:05:03.372Z,2008.00
2022-07-28T10:06:03.358Z,2008.00
2022-07-28T10:07:03.348Z,1980.00
2022-07-28T10:08:03.399Z,1996.00
2022-07-28T10:09:03.336Z,1964.00
2022-07-28T10:10:03.331Z,1976.00
2022-07-28T10:11:03.321Z,1992.00
2022-07-28T10:12:03.318Z,1956.00
2022-07-28T10:13:03.317Z,1956.00
2022-07-28T10:14:03.310Z,1960.00
2022-07-28T10:15:03.294Z,2048.00
2022-07-28T10:16:03.355Z,1964.00
2022-07-28T10:17:06.235Z,1972.00
2022-07-28T10:18:04.273Z,1960.00
2022-07-28T10:19:03.268Z,1984.00
2022-07-28T10:20:03.243Z,1964.00
2022-07-28T10:21:03.244Z,1968.00
2022-07-28T10:22:03.244Z,1980.00
2022-07-28T10:23:03.226Z,1980.00
2022-07-28T10:24:03.218Z,2000.00
2022-07-28T10:25:03.216Z,2004.00
2022-07-28T10:26:03.215Z,2056.00
2022-07-28T10:27:04.184Z,2020.00
2022-07-28T10:28:03.179Z,2008.00
2022-07-28T10:29:03.179Z,2008.00
2022-07-28T10:30:03.163Z,1980.00
2022-07-28T10:31:03.246Z,1952.00
2022-07-28T10:32:03.150Z,1956.00
2022-07-28T10:33:03.157Z,1964.00
2022-07-28T10:34:03.157Z,1976.00
2022-07-28T10:35:03.132Z,1964.00
2022-07-28T10:36:03.121Z,1968.00
2022-07-28T10:37:03.107Z,1972.00
2022-07-28T10:38:03.099Z,1956.00
2022-07-28T10:39:03.123Z,1988.00
2022-07-28T10:40:07.839Z,1976.00
2022-07-28T10:41:05.076Z,1968.00
2022-07-28T10:42:03.068Z,2008.00
2022-07-28T10:43:03.058Z,2004.00
2022-07-28T10:44:03.063Z,2004.00
2022-07-28T10:45:03.045Z,1948.00
2022-07-28T10:46:06.092Z,1932.00
2022-07-28T10:47:04.064Z,1952.00
2022-07-28T10:48:03.013Z,1964.00
2022-07-28T10:49:03.521Z,1984.00
2022-07-28T10:50:03.041Z,1980.00
2022-07-28T10:51:03.016Z,2008.00
2022-07-28T10:52:08.754Z,1996.00
2022-07-28T10:53:04.020Z,1996.00
2022-07-28T10:54:02.989Z,1976.00
2022-07-28T10:55:02.973Z,1996.00
2022-07-28T10:56:02.956Z,2008.00
2022-07-28T10:57:04.769Z,2052.00
2022-07-28T10:58:05.143Z,1984.00
2022-07-28T10:59:05.048Z,1952.00
2022-07-28T11:00:12.792Z,1984.00
2022-07-28T11:01:06.243Z,1976.00
2022-07-28T11:02:04.046Z,1992.00
2022-07-28T11:03:11.746Z,2024.00
2022-07-28T11:04:03.898Z,2040.00
2022-07-28T11:05:02.889Z,2032.00
2022-07-28T11:06:02.891Z,2024.00
2022-07-28T11:07:02.871Z,2016.00
2022-07-28T11:08:02.862Z,2028.00
2022-07-28T11:09:02.850Z,2004.00
2022-07-28T11:10:02.849Z,2012.00
2022-07-28T11:11:07.767Z,1992.00
2022-07-28T11:12:03.835Z,1988.00
2022-07-28T11:13:04.118Z,2024.00
2022-07-28T11:14:02.816Z,2020.00
2022-07-28T11:15:18.243Z,1984.00
2022-07-28T11:16:03.791Z,2024.00
2022-07-28T11:17:02.815Z,2072.00
2022-07-28T11:18:02.784Z,2076.00
2022-07-28T11:19:04.814Z,2060.00
2022-07-28T11:21:04.763Z,2032.00
2022-07-28T11:22:02.752Z,2036.00
2022-07-28T11:23:02.743Z,2056.00
2022-07-28T11:24:02.731Z,2056.00
2022-07-28T11:25:20.979Z,2036.00
2022-07-28T11:26:03.716Z,2060.00
2022-07-28T11:27:04.230Z,2036.00
2022-07-28T11:28:03.693Z,2024.00
2022-07-28T11:29:02.685Z,1996.00
2022-07-28T11:30:02.695Z,2016.00
2022-07-28T11:31:02.746Z,2024.00
2022-07-28T11:32:02.683Z,1980.00
2022-07-28T11:33:02.660Z,1712.00
2022-07-28T11:34:02.668Z,1920.00
2022-07-28T11:35:02.642Z,1888.00
2022-07-28T11:36:02.638Z,1856.00
2022-07-28T11:37:02.645Z,1888.00
2022-07-28T11:38:02.721Z,2000.00
2022-07-28T11:39:02.638Z,2072.00
2022-07-28T11:40:02.605Z,2040.00
2022-07-28T11:41:02.604Z,1976.00
2022-07-28T11:42:02.632Z,2016.00
2022-07-28T11:43:02.578Z,2024.00
2022-07-28T11:44:02.573Z,2056.00
2022-07-28T11:45:02.560Z,2056.00
2022-07-28T11:46:02.671Z,2040.00
2022-07-28T11:47:02.545Z,1932.00
2022-07-28T11:48:02.537Z,2012.00
2022-07-28T11:49:02.561Z,2036.00
2022-07-28T11:50:02.528Z,1964.00
2022-07-28T11:51:02.521Z,2044.00
2022-07-28T11:52:02.512Z,2008.00
2022-07-28T11:53:02.503Z,2032.00
2022-07-28T11:54:02.493Z,2044.00
2022-07-28T11:55:02.484Z,2056.00
2022-07-28T11:56:03.213Z,2020.00
2022-07-28T11:57:02.460Z,2048.00
2022-07-28T11:58:02.464Z,2044.00
2022-07-28T11:59:02.449Z,2056.00
2022-07-28T12:00:02.505Z,2032.00
2022-07-28T12:01:02.437Z,2084.00
2022-07-28T12:02:02.495Z,2080.00
2022-07-28T12:03:02.440Z,2072.00
2022-07-28T12:04:36.042Z,2076.00
2022-07-28T12:05:02.591Z,2112.00
2022-07-28T12:06:02.411Z,2168.00
2022-07-28T12:07:02.391Z,2188.00
2022-07-28T12:08:02.392Z,2228.00
2022-07-28T12:09:02.510Z,2264.00
2022-07-28T12:10:02.371Z,2104.00
2022-07-28T12:11:03.039Z,2236.00
2022-07-28T12:12:04.009Z,2148.00
2022-07-28T12:13:02.408Z,2148.00
2022-07-28T12:14:02.447Z,2200.00
2022-07-28T12:15:06.924Z,2224.00
2022-07-28T12:16:04.344Z,2016.00
2022-07-28T12:17:02.525Z,2164.00
2022-07-28T12:18:02.314Z,2196.00
2022-07-28T12:19:02.298Z,2212.00
2022-07-28T12:20:03.041Z,2184.00
2022-07-28T12:21:05.272Z,2128.00
2022-07-28T12:22:04.285Z,2148.00
2022-07-28T12:23:02.270Z,2272.00
2022-07-28T12:24:02.316Z,2204.00
2022-07-28T12:25:02.254Z,2188.00
2022-07-28T12:26:02.962Z,2200.00
2022-07-28T12:27:02.240Z,2204.00
2022-07-28T12:28:02.288Z,2244.00